createdAt,value
2018-06-05T00:00:28.015Z,10.37
2018-06-05T00:02:56.400Z,11.83
2018-06-05T00:05:24.734Z,13.07
2018-06-05T00:07:53.147Z,11.47
2018-06-05T00:10:21.600Z,10.97
2018-06-05T00:12:49.988Z,11.67
2018-06-05T00:15:18.533Z,10.90
2018-06-05T00:17:46.942Z,11.10
2018-06-05T00:20:15.309Z,12.60
2018-06-05T00:22:43.753Z,11.07
2018-06-05T00:25:12.166Z,16.23
2018-06-05T00:27:40.497Z,10.63
2018-06-05T00:30:09.017Z,11.87
2018-06-05T00:32:37.388Z,10.70
2018-06-05T00:35:05.790Z,11.40
2018-06-05T00:37:34.190Z,12.17
2018-06-05T00:40:02.635Z,11.00
2018-06-05T00:42:31.915Z,12.13
2018-06-05T00:45:00.329Z,10.57
2018-06-05T00:47:28.661Z,16.80
2018-06-05T00:49:57.020Z,10.80
2018-06-05T00:52:25.432Z,12.43
2018-06-05T00:54:53.812Z,11.80
2018-06-05T00:57:22.216Z,12.63
2018-06-05T00:59:50.563Z,15.80
2018-06-05T01:02:19.061Z,15.90
2018-06-05T01:04:47.479Z,12.37
2018-06-05T01:07:15.902Z,11.27
2018-06-05T01:09:44.277Z,13.40
2018-06-05T01:12:12.632Z,14.80
2018-06-05T01:14:41.019Z,11.50
2018-06-05T01:17:09.440Z,14.90
2018-06-05T01:19:37.834Z,12.57
2018-06-05T01:22:06.185Z,20.20
2018-06-05T01:24:34.527Z,18.40
2018-06-05T01:27:03.009Z,13.10
2018-06-05T01:29:31.387Z,12.83
2018-06-05T01:31:59.744Z,13.40
2018-06-05T01:34:28.211Z,14.97
2018-06-05T01:36:56.541Z,13.63
2018-06-05T01:39:25.025Z,14.23
2018-06-05T01:41:53.423Z,19.10
2018-06-05T01:44:21.831Z,13.60
2018-06-05T01:46:50.164Z,14.90
2018-06-05T01:49:18.532Z,18.43
2018-06-05T01:51:46.940Z,17.10
2018-06-05T01:54:15.293Z,17.03
2018-06-05T01:56:43.716Z,15.67
2018-06-05T01:59:12.128Z,12.27
2018-06-05T02:01:40.515Z,13.17
2018-06-05T02:04:08.897Z,19.07
2018-06-05T02:06:37.232Z,13.30
2018-06-05T02:09:06.508Z,14.57
2018-06-05T02:11:34.904Z,13.63
2018-06-05T02:14:03.371Z,14.40
2018-06-05T02:16:31.830Z,21.03
2018-06-05T02:19:00.244Z,14.97
2018-06-05T02:21:28.676Z,14.17
2018-06-05T02:23:57.115Z,13.53
2018-06-05T02:26:25.484Z,17.97
2018-06-05T02:28:53.861Z,13.23
2018-06-05T02:31:22.292Z,14.63
2018-06-05T02:33:50.682Z,14.50
2018-06-05T02:36:19.117Z,14.43
2018-06-05T02:38:47.509Z,18.80
2018-06-05T02:41:15.904Z,17.53
2018-06-05T02:43:44.337Z,13.83
2018-06-05T02:46:12.829Z,18.50
2018-06-05T02:48:41.261Z,14.50
2018-06-05T02:51:09.736Z,15.60
2018-06-05T02:53:38.105Z,14.27
2018-06-05T02:56:06.491Z,14.43
2018-06-05T02:58:34.888Z,14.47
2018-06-05T03:01:03.308Z,15.50
2018-06-05T03:03:31.671Z,17.50
2018-06-05T03:06:00.056Z,21.13
2018-06-05T03:08:28.439Z,17.07
2018-06-05T03:10:56.817Z,18.13
2018-06-05T03:13:25.182Z,20.47
2018-06-05T03:15:53.515Z,18.20
2018-06-05T03:18:21.932Z,14.63
2018-06-05T03:20:50.360Z,14.90
2018-06-05T03:23:18.787Z,15.43
2018-06-05T03:25:47.172Z,15.80
2018-06-05T03:28:15.525Z,14.80
2018-06-05T03:30:43.890Z,18.77
2018-06-05T03:33:12.269Z,17.17
2018-06-05T03:35:40.681Z,20.30
2018-06-05T03:38:09.052Z,17.90
2018-06-05T03:40:37.419Z,18.57
2018-06-05T03:43:06.264Z,22.90
2018-06-05T03:45:34.627Z,19.57
2018-06-05T03:48:03.016Z,17.57
2018-06-05T03:50:31.391Z,24.33
2018-06-05T03:52:59.775Z,16.53
2018-06-05T03:55:28.240Z,21.90
2018-06-05T03:57:56.617Z,17.80
2018-06-05T04:00:25.063Z,28.50
2018-06-05T04:02:53.448Z,17.83
2018-06-05T04:05:21.819Z,18.63
2018-06-05T04:07:50.145Z,21.27
2018-06-05T04:10:18.543Z,23.57
2018-06-05T04:12:46.933Z,19.70
2018-06-05T04:15:15.309Z,28.23
2018-06-05T04:17:43.785Z,21.07
2018-06-05T04:20:12.176Z,21.63
2018-06-05T04:22:40.591Z,22.23
2018-06-05T04:25:08.990Z,19.00
2018-06-05T04:27:37.528Z,19.13
2018-06-05T04:30:05.902Z,20.53
2018-06-05T04:32:34.313Z,22.73
2018-06-05T04:35:02.662Z,22.47
2018-06-05T04:37:31.091Z,25.50
2018-06-05T04:39:59.465Z,23.23
2018-06-05T04:42:27.897Z,25.20
2018-06-05T04:44:56.261Z,23.33
2018-06-05T04:47:24.328Z,26.67
2018-06-05T04:49:52.809Z,28.43
2018-06-05T04:52:21.293Z,25.13
2018-06-05T04:54:49.772Z,23.27
2018-06-05T04:57:18.209Z,24.97
2018-06-05T04:59:46.573Z,23.33
2018-06-05T05:02:14.940Z,23.93
2018-06-05T05:04:43.442Z,24.13
2018-06-05T05:07:11.843Z,24.90
2018-06-05T05:09:40.250Z,25.73
2018-06-05T05:12:08.621Z,23.63
2018-06-05T05:14:37.000Z,22.67
2018-06-05T05:17:05.475Z,26.63
2018-06-05T05:19:33.831Z,29.60
2018-06-05T05:22:02.199Z,25.80
2018-06-05T05:24:30.560Z,25.43
2018-06-05T05:26:58.999Z,33.37
2018-06-05T05:29:27.368Z,26.50
2018-06-05T05:31:55.759Z,27.63
2018-06-05T05:34:24.106Z,26.27
2018-06-05T05:36:52.563Z,34.87
2018-06-05T05:39:20.958Z,33.73
2018-06-05T05:41:49.285Z,29.93
2018-06-05T05:44:17.696Z,29.13
2018-06-05T05:46:46.074Z,24.13
2018-06-05T05:49:14.420Z,25.77
2018-06-05T05:51:42.781Z,26.73
2018-06-05T05:54:11.275Z,27.27
2018-06-05T05:56:39.647Z,29.43
2018-06-05T05:59:08.045Z,27.63
2018-06-05T06:01:36.365Z,32.33
2018-06-05T06:04:04.763Z,32.80
2018-06-05T06:06:33.153Z,28.70
2018-06-05T06:09:01.599Z,30.43
2018-06-05T06:11:29.965Z,27.57
2018-06-05T06:13:58.348Z,28.70
2018-06-05T06:16:26.690Z,33.50
2018-06-05T06:18:55.149Z,36.70
2018-06-05T06:21:23.612Z,30.83
2018-06-05T06:23:51.963Z,21.63
2018-06-05T06:26:20.353Z,23.10
2018-06-05T06:28:48.726Z,26.50
2018-06-05T06:31:17.111Z,24.20
2018-06-05T06:33:45.494Z,23.23
2018-06-05T06:36:13.872Z,23.37
2018-06-05T06:38:42.820Z,25.00
2018-06-05T06:41:11.237Z,28.20
2018-06-05T06:43:39.796Z,21.70
2018-06-05T06:46:08.230Z,21.63
2018-06-05T06:48:36.710Z,24.30
2018-06-05T06:51:05.089Z,23.73
2018-06-05T06:53:33.496Z,21.30
2018-06-05T06:56:02.057Z,23.87
2018-06-05T06:58:30.427Z,20.87
2018-06-05T07:00:58.808Z,21.83
2018-06-05T07:03:27.348Z,24.03
2018-06-05T07:05:56.411Z,25.87
2018-06-05T07:08:24.833Z,21.10
2018-06-05T07:10:53.276Z,25.90
2018-06-05T07:13:21.646Z,21.23
2018-06-05T07:15:50.021Z,20.70
2018-06-05T07:18:18.460Z,19.50
2018-06-05T07:20:46.902Z,21.03
2018-06-05T07:23:15.343Z,26.27
2018-06-05T07:25:43.828Z,18.77
2018-06-05T07:28:12.283Z,17.60
2018-06-05T07:30:40.689Z,16.87
2018-06-05T07:33:09.130Z,19.07
2018-06-05T07:35:37.471Z,17.83
2018-06-05T07:38:05.959Z,17.70
2018-06-05T07:40:34.322Z,17.90
2018-06-05T07:43:02.700Z,24.80
2018-06-05T07:45:31.101Z,17.63
2018-06-05T07:47:59.500Z,19.00
2018-06-05T07:50:27.995Z,19.43
2018-06-05T07:52:56.417Z,17.63
2018-06-05T07:55:24.818Z,16.70
2018-06-05T07:57:53.245Z,17.10
2018-06-05T08:00:21.680Z,15.67
2018-06-05T08:02:50.091Z,16.70
2018-06-05T08:05:18.524Z,16.60
2018-06-05T08:07:46.980Z,17.13
2018-06-05T08:10:15.439Z,15.53
2018-06-05T08:12:43.806Z,17.13
2018-06-05T08:15:12.281Z,16.83
2018-06-05T08:17:40.653Z,17.50
2018-06-05T08:20:09.056Z,30.80
2018-06-05T08:22:53.257Z,16.97
2018-06-05T08:25:21.744Z,17.90
2018-06-05T08:27:50.073Z,28.30
2018-06-05T08:30:18.531Z,19.23
2018-06-05T08:32:46.958Z,19.80
2018-06-05T08:35:15.377Z,17.47
2018-06-05T08:37:43.905Z,71.53
2018-06-05T08:40:12.209Z,23.10
2018-06-05T08:42:40.711Z,16.10
2018-06-05T08:45:09.262Z,17.00
2018-06-05T08:47:38.546Z,17.47
2018-06-05T08:50:07.908Z,17.10
2018-06-05T08:52:36.881Z,16.30
2018-06-05T08:55:05.617Z,16.57
2018-06-05T08:57:34.008Z,14.70
2018-06-05T09:00:02.397Z,15.53
2018-06-05T09:02:30.800Z,14.83
2018-06-05T09:04:59.194Z,15.70
2018-06-05T09:07:27.556Z,16.13
2018-06-05T09:09:56.044Z,15.20
2018-06-05T09:12:24.458Z,14.63
2018-06-05T09:14:52.873Z,14.20
2018-06-05T09:17:21.274Z,15.33
2018-06-05T09:19:49.676Z,17.57
2018-06-05T09:22:18.059Z,19.07
2018-06-05T09:24:46.571Z,23.50
2018-06-05T09:27:14.938Z,19.43
2018-06-05T09:29:43.325Z,18.97
2018-06-05T09:32:11.709Z,18.70
2018-06-05T09:34:40.150Z,20.37
2018-06-05T09:37:08.589Z,18.00
2018-06-05T09:39:37.099Z,21.10
2018-06-05T09:42:05.482Z,23.10
2018-06-05T09:44:33.920Z,21.63
2018-06-05T09:47:02.342Z,21.50
2018-06-05T09:49:30.759Z,23.23
2018-06-05T09:51:59.210Z,19.70
2018-06-05T09:54:27.580Z,23.60
2018-06-05T09:56:55.999Z,18.97
2018-06-05T09:59:24.372Z,20.27
2018-06-05T10:01:52.801Z,20.77
2018-06-05T10:04:21.239Z,17.63
2018-06-05T10:06:49.672Z,20.57
2018-06-05T10:09:18.079Z,19.63
2018-06-05T10:11:46.540Z,18.37
2018-06-05T10:14:14.955Z,18.83
2018-06-05T10:16:43.310Z,18.80
2018-06-05T10:19:11.861Z,20.60
2018-06-05T10:21:40.288Z,17.67
2018-06-05T10:24:08.712Z,19.40
2018-06-05T10:26:37.091Z,21.33
2018-06-05T10:29:05.568Z,18.00
2018-06-05T10:31:34.150Z,17.00
2018-06-05T10:34:02.618Z,18.57
2018-06-05T10:36:31.068Z,17.80
2018-06-05T10:38:59.508Z,17.93
2018-06-05T10:41:27.934Z,19.13
2018-06-05T10:43:56.401Z,16.37
2018-06-05T10:46:24.900Z,17.80
2018-06-05T10:48:53.372Z,17.13
2018-06-05T10:51:21.819Z,17.00
2018-06-05T10:53:50.306Z,16.67
2018-06-05T10:56:18.660Z,16.70
2018-06-05T10:58:47.128Z,16.70
2018-06-05T11:01:15.524Z,15.47
2018-06-05T11:03:43.955Z,17.00
2018-06-05T11:06:12.474Z,15.43
2018-06-05T11:08:40.981Z,14.97
2018-06-05T11:11:09.381Z,13.93
2018-06-05T11:13:37.844Z,13.73
2018-06-05T11:16:06.276Z,13.40
2018-06-05T11:18:34.742Z,13.70
2018-06-05T11:21:03.113Z,15.87
2018-06-05T11:23:31.548Z,14.67
2018-06-05T11:25:59.993Z,20.67
2018-06-05T11:28:28.514Z,15.33
2018-06-05T11:30:57.059Z,14.90
2018-06-05T11:33:25.473Z,13.83
2018-06-05T11:35:53.932Z,12.10
2018-06-05T11:38:22.308Z,15.80
2018-06-05T11:40:50.726Z,9.83
2018-06-05T11:43:19.237Z,9.70
2018-06-05T11:45:47.721Z,9.63
2018-06-05T11:48:16.207Z,10.13
2018-06-05T11:50:44.657Z,9.27
2018-06-05T11:53:13.098Z,18.37
2018-06-05T11:55:41.541Z,8.40
2018-06-05T11:58:09.964Z,8.63
2018-06-05T12:00:38.469Z,8.20
2018-06-05T12:03:06.941Z,8.20
2018-06-05T12:05:35.329Z,7.37
2018-06-05T12:08:03.793Z,6.83
2018-06-05T12:10:32.261Z,6.40
2018-06-05T12:13:00.664Z,6.30
2018-06-05T12:15:29.124Z,6.50
2018-06-05T12:17:57.658Z,6.03
2018-06-05T12:20:25.740Z,8.57
2018-06-05T12:22:54.168Z,6.07
2018-06-05T12:25:22.621Z,6.80
2018-06-05T12:27:51.013Z,6.13
2018-06-05T12:30:19.428Z,6.93
2018-06-05T12:32:47.839Z,6.10
2018-06-05T12:35:16.278Z,7.07
2018-06-05T12:37:44.807Z,7.20
2018-06-05T12:40:13.179Z,7.23
2018-06-05T12:42:41.583Z,7.53
2018-06-05T12:45:09.982Z,7.23
2018-06-05T12:47:38.468Z,9.17
2018-06-05T12:50:06.992Z,7.60
2018-06-05T12:52:35.432Z,8.57
2018-06-05T12:55:03.900Z,7.83
2018-06-05T12:57:32.394Z,9.00
2018-06-05T13:00:00.888Z,8.73
2018-06-05T13:02:29.450Z,9.00
2018-06-05T13:04:57.879Z,9.30
2018-06-05T13:07:26.320Z,10.10
2018-06-05T13:09:54.772Z,10.40
2018-06-05T13:12:23.168Z,11.17
2018-06-05T13:14:51.612Z,10.00
2018-06-05T13:17:19.955Z,10.70
2018-06-05T13:19:48.285Z,11.43
2018-06-05T13:22:16.684Z,11.23
2018-06-05T13:24:45.075Z,10.43
2018-06-05T13:27:13.516Z,9.70
2018-06-05T13:29:42.026Z,8.30
2018-06-05T13:32:10.488Z,10.00
2018-06-05T13:34:39.009Z,8.23
2018-06-05T13:37:07.442Z,8.87
2018-06-05T13:39:35.929Z,10.37
2018-06-05T13:42:04.354Z,10.53
2018-06-05T13:44:32.707Z,9.30
2018-06-05T13:47:01.085Z,9.00
2018-06-05T13:49:29.478Z,8.83
2018-06-05T13:51:57.943Z,9.30
2018-06-05T13:54:26.370Z,8.83
2018-06-05T13:56:54.500Z,10.17
2018-06-05T13:59:22.911Z,8.97
2018-06-05T14:01:51.371Z,9.30
2018-06-05T14:04:19.829Z,9.07
2018-06-05T14:06:48.378Z,8.63
2018-06-05T14:09:16.796Z,9.10
2018-06-05T14:11:45.221Z,8.73
2018-06-05T14:14:13.639Z,9.07
2018-06-05T14:16:42.145Z,9.40
2018-06-05T14:19:10.641Z,8.40
2018-06-05T14:21:39.156Z,8.77
2018-06-05T14:24:07.644Z,8.10
2018-06-05T14:26:36.065Z,7.90
2018-06-05T14:29:04.574Z,7.87
2018-06-05T14:31:32.972Z,7.57
2018-06-05T14:34:01.522Z,8.27
2018-06-05T14:36:30.076Z,7.53
2018-06-05T14:38:58.573Z,9.10
2018-06-05T14:41:27.154Z,8.87
2018-06-05T14:43:55.572Z,8.30
2018-06-05T14:46:23.984Z,8.53
2018-06-05T14:48:52.505Z,8.40
2018-06-05T14:51:20.890Z,8.37
2018-06-05T14:53:49.291Z,7.93
2018-06-05T14:56:17.745Z,8.47
2018-06-05T14:58:46.193Z,8.43
2018-06-05T15:01:14.640Z,8.40
2018-06-05T15:03:43.029Z,8.00
2018-06-05T15:06:11.492Z,8.00
2018-06-05T15:08:39.972Z,8.87
2018-06-05T15:11:08.535Z,8.43
2018-06-05T15:13:36.960Z,10.03
2018-06-05T15:16:05.597Z,8.50
2018-06-05T15:18:34.107Z,8.10
2018-06-05T15:21:02.486Z,8.20
2018-06-05T15:23:30.928Z,8.93
2018-06-05T15:25:59.398Z,9.00
2018-06-05T15:28:27.788Z,8.47
2018-06-05T15:30:56.194Z,9.10
2018-06-05T15:33:24.664Z,9.17
2018-06-05T15:35:53.087Z,9.13
2018-06-05T15:38:21.585Z,8.40
2018-06-05T15:40:49.994Z,8.20
2018-06-05T15:43:18.520Z,8.53
2018-06-05T15:45:46.614Z,8.63
2018-06-05T15:48:15.127Z,8.80
2018-06-05T15:50:43.576Z,8.50
2018-06-05T15:53:12.004Z,9.23
2018-06-05T15:55:40.626Z,8.23
2018-06-05T15:58:09.085Z,8.90
2018-06-05T16:00:38.069Z,8.60
2018-06-05T16:03:06.639Z,10.10
2018-06-05T16:05:35.207Z,8.97
2018-06-05T16:08:03.656Z,8.83
2018-06-05T16:10:32.254Z,8.53
2018-06-05T16:13:01.194Z,8.47
2018-06-05T16:15:30.153Z,9.13
2018-06-05T16:17:58.614Z,13.13
2018-06-05T16:20:27.168Z,9.33
2018-06-05T16:22:55.637Z,9.23
2018-06-05T16:25:24.108Z,10.10
2018-06-05T16:27:52.576Z,9.20
2018-06-05T16:30:20.996Z,10.03
2018-06-05T16:32:49.488Z,9.43
2018-06-05T16:35:17.881Z,9.17
2018-06-05T16:37:46.304Z,8.97
2018-06-05T16:40:14.800Z,8.87
2018-06-05T16:42:43.436Z,8.90
2018-06-05T16:45:12.144Z,9.20
2018-06-05T16:47:40.660Z,10.07
2018-06-05T16:50:09.111Z,9.07
2018-06-05T16:52:37.590Z,9.47
2018-06-05T16:55:06.041Z,9.80
2018-06-05T16:57:34.485Z,8.87
2018-06-05T17:00:03.013Z,8.67
2018-06-05T17:02:32.060Z,10.53
2018-06-05T17:05:00.977Z,9.57
2018-06-05T17:07:29.740Z,9.00
2018-06-05T17:09:58.298Z,8.50
2018-06-05T17:12:26.697Z,8.33
2018-06-05T17:14:55.136Z,8.97
2018-06-05T17:17:23.663Z,8.33
2018-06-05T17:19:52.747Z,9.40
2018-06-05T17:22:21.607Z,9.03
2018-06-05T17:24:50.470Z,8.70
2018-06-05T17:27:19.115Z,8.00
2018-06-05T17:29:47.570Z,8.90
2018-06-05T17:32:16.056Z,8.80
2018-06-05T17:34:44.688Z,9.50
2018-06-05T17:37:13.342Z,9.33
2018-06-05T17:39:42.274Z,9.20
2018-06-05T17:42:11.353Z,8.53
2018-06-05T17:44:40.283Z,9.13
2018-06-05T17:47:09.013Z,9.27
2018-06-05T17:49:37.790Z,9.10
2018-06-05T17:52:06.880Z,8.77
2018-06-05T17:54:35.307Z,8.40
2018-06-05T17:57:03.822Z,9.83
2018-06-05T17:59:32.306Z,8.30
2018-06-05T18:02:00.944Z,8.30
2018-06-05T18:04:29.682Z,8.03
2018-06-05T18:06:58.388Z,10.37
2018-06-05T18:09:27.037Z,8.63
2018-06-05T18:11:55.749Z,8.27
2018-06-05T18:14:24.479Z,8.77
2018-06-05T18:16:52.990Z,8.90
2018-06-05T18:19:21.416Z,8.00
2018-06-05T18:21:49.836Z,8.10
2018-06-05T18:24:18.250Z,11.40
2018-06-05T18:26:46.661Z,7.63
2018-06-05T18:29:15.154Z,8.10
2018-06-05T18:31:43.694Z,8.00
2018-06-05T18:34:12.095Z,9.17
2018-06-05T18:36:40.616Z,9.40
2018-06-05T18:39:09.112Z,8.17
2018-06-05T18:41:37.540Z,8.60
2018-06-05T18:44:05.942Z,8.47
2018-06-05T18:46:34.417Z,7.50
2018-06-05T18:49:02.952Z,7.60
2018-06-05T18:51:31.392Z,7.97
2018-06-05T18:53:59.854Z,8.40
2018-06-05T18:56:28.327Z,8.37
2018-06-05T18:58:56.849Z,10.10
2018-06-05T19:01:25.355Z,8.00
2018-06-05T19:03:53.746Z,7.70
2018-06-05T19:06:22.285Z,9.30
2018-06-05T19:08:50.742Z,8.50
2018-06-05T19:11:19.202Z,9.53
2018-06-05T19:13:47.646Z,8.47
2018-06-05T19:16:16.076Z,8.10
2018-06-05T19:18:44.515Z,8.87
2018-06-05T19:21:12.949Z,9.60
2018-06-05T19:23:41.367Z,8.03
2018-06-05T19:26:09.795Z,8.20
2018-06-05T19:28:38.269Z,14.10
2018-06-05T19:31:06.752Z,8.13
2018-06-05T19:33:35.239Z,8.07
2018-06-05T19:36:03.774Z,8.20
2018-06-05T19:38:32.259Z,7.90
2018-06-05T19:41:00.749Z,8.17
2018-06-05T19:43:29.230Z,7.73
2018-06-05T19:45:57.712Z,7.80
2018-06-05T19:48:26.140Z,8.37
2018-06-05T19:50:54.652Z,7.70
2018-06-05T19:53:23.082Z,8.20
2018-06-05T19:55:51.564Z,9.77
2018-06-05T19:58:19.922Z,8.03
2018-06-05T20:00:48.312Z,9.40
2018-06-05T20:03:16.772Z,11.10
2018-06-05T20:05:45.242Z,15.13
2018-06-05T20:08:13.664Z,14.67
2018-06-05T20:10:42.121Z,8.67
2018-06-05T20:13:10.587Z,8.57
2018-06-05T20:15:38.998Z,10.27
2018-06-05T20:18:07.590Z,10.40
2018-06-05T20:20:36.025Z,8.23
2018-06-05T20:23:04.503Z,10.70
2018-06-05T20:25:33.016Z,10.40
2018-06-05T20:28:01.541Z,8.40
2018-06-05T20:30:30.097Z,9.20
2018-06-05T20:32:58.733Z,8.97
2018-06-05T20:35:27.361Z,9.23
2018-06-05T20:37:55.890Z,8.50
2018-06-05T20:40:24.288Z,8.90
2018-06-05T20:42:52.741Z,8.87
2018-06-05T20:45:21.122Z,12.47
2018-06-05T20:47:49.875Z,8.80
2018-06-05T20:50:18.995Z,9.03
2018-06-05T20:52:47.681Z,9.30
2018-06-05T20:55:16.176Z,8.73
2018-06-05T20:57:44.713Z,9.47
2018-06-05T21:00:13.231Z,9.37
2018-06-05T21:02:41.609Z,9.37
2018-06-05T21:05:10.347Z,17.93
2018-06-05T21:07:39.324Z,9.50
2018-06-05T21:10:08.327Z,10.00
2018-06-05T21:12:36.777Z,9.07
2018-06-05T21:15:05.323Z,10.33
2018-06-05T21:17:33.784Z,9.10
2018-06-05T21:20:02.225Z,9.70
2018-06-05T21:22:30.725Z,10.90
2018-06-05T21:24:59.217Z,9.83
2018-06-05T21:27:27.674Z,8.40
2018-06-05T21:29:56.139Z,11.53
2018-06-05T21:32:24.598Z,9.13
2018-06-05T21:34:53.088Z,10.30
2018-06-05T21:37:21.461Z,9.03
2018-06-05T21:39:49.876Z,9.43
2018-06-05T21:42:18.241Z,9.47
2018-06-05T21:44:46.684Z,9.10
2018-06-05T21:47:15.042Z,8.80
2018-06-05T21:49:43.507Z,8.27
2018-06-05T21:52:11.917Z,9.00
2018-06-05T21:54:40.477Z,9.77
2018-06-05T21:57:08.852Z,8.33
2018-06-05T21:59:37.222Z,9.13
2018-06-05T22:02:05.673Z,11.03
2018-06-05T22:04:34.136Z,9.37
2018-06-05T22:07:02.551Z,9.73
2018-06-05T22:09:30.944Z,12.27
2018-06-05T22:11:59.416Z,10.30
2018-06-05T22:14:27.770Z,10.17
2018-06-05T22:16:56.152Z,15.13
2018-06-05T22:19:24.575Z,12.20
2018-06-05T22:21:53.015Z,9.30
2018-06-05T22:24:21.368Z,10.00
2018-06-05T22:26:49.775Z,10.60
2018-06-05T22:29:18.193Z,10.63
2018-06-05T22:31:46.589Z,9.47
2018-06-05T22:34:14.952Z,9.60
2018-06-05T22:36:43.328Z,14.53
2018-06-05T22:39:11.678Z,16.23
2018-06-05T22:41:40.079Z,16.27
2018-06-05T22:44:08.428Z,13.90
2018-06-05T22:46:36.840Z,11.30
2018-06-05T22:49:05.277Z,23.47
2018-06-05T22:51:33.665Z,10.47
2018-06-05T22:54:02.127Z,11.80
2018-06-05T22:56:30.609Z,10.87
2018-06-05T22:58:58.957Z,12.00
2018-06-05T23:01:27.273Z,11.43
2018-06-05T23:03:55.637Z,9.90
2018-06-05T23:06:23.997Z,10.50
2018-06-05T23:08:52.364Z,10.87
2018-06-05T23:11:20.729Z,10.93
2018-06-05T23:13:49.138Z,11.43
2018-06-05T23:16:17.554Z,13.87
2018-06-05T23:18:45.913Z,11.80
2018-06-05T23:21:14.264Z,10.50
2018-06-05T23:23:42.660Z,12.40
2018-06-05T23:26:11.085Z,10.00
2018-06-05T23:28:39.435Z,11.87
2018-06-05T23:31:07.872Z,11.90
2018-06-05T23:33:36.216Z,11.03
2018-06-05T23:36:04.643Z,11.77
2018-06-05T23:38:33.031Z,11.80
2018-06-05T23:41:01.375Z,15.87
2018-06-05T23:43:29.732Z,17.77
2018-06-05T23:45:58.185Z,12.00
2018-06-05T23:48:26.616Z,11.77
2018-06-05T23:50:55.065Z,14.93
2018-06-05T23:53:23.393Z,12.97
2018-06-05T23:55:51.751Z,15.67
2018-06-05T23:58:20.171Z,11.77
